Time;durP1;ratioP1;P1;durP2;ratioP2;P2;SDS_P1;SDS_P2;PMS_P1;PMS_P2;Temp;Humidity;BMP_temperature;BMP_pressure;BME280_temperature;BME280_humidity;BME280_pressure;Samples;Min_cycle;Max_cycle;Signal;HPM_P1;HPM_P2
2021/03/31 00:00:53;;;;;;;8.02;5.93;;;6.60;76.50;;;;;;4964743;28;20046;-75
2021/03/31 00:03:22;;;;;;;7.82;4.85;;;6.70;75.90;;;;;;4973657;28;20066;-75
2021/03/31 00:05:50;;;;;;;11.75;5.47;;;6.70;75.40;;;;;;4970836;28;20058;-75
2021/03/31 00:08:18;;;;;;;12.45;5.32;;;6.70;75.10;;;;;;4973422;28;20046;-75
2021/03/31 00:10:48;;;;;;;8.60;4.97;;;6.60;75.10;;;;;;4979449;28;20062;-75
2021/03/31 00:13:22;;;;;;;5.50;4.32;;;6.50;75.90;;;;;;4972940;28;20043;-75
2021/03/31 00:15:51;;;;;;;8.52;4.80;;;6.40;76.60;;;;;;4972910;28;20066;-75
2021/03/31 00:18:21;;;;;;;9.07;5.47;;;6.30;77.40;;;;;;4977309;28;20054;-75
2021/03/31 00:20:49;;;;;;;7.35;6.05;;;6.30;77.80;;;;;;4954045;28;20497;-75
2021/03/31 00:23:23;;;;;;;8.98;5.80;;;6.30;77.90;;;;;;4977591;28;20050;-75
2021/03/31 00:25:52;;;;;;;8.77;5.53;;;6.30;78.10;;;;;;4970319;28;20393;-75
2021/03/31 00:28:21;;;;;;;9.18;5.95;;;6.30;78.30;;;;;;4964838;28;20043;-75
2021/03/31 00:30:49;;;;;;;6.68;5.35;;;6.20;78.30;;;;;;4972488;28;20039;-75
2021/03/31 00:33:17;;;;;;;9.10;6.47;;;6.30;79.10;;;;;;4972369;28;20042;-75
2021/03/31 00:35:45;;;;;;;7.30;5.70;;;6.40;78.20;;;;;;4972301;28;20047;-75
2021/03/31 00:38:12;;;;;;;10.85;7.32;;;6.50;78.20;;;;;;4972228;28;20043;-75
2021/03/31 00:40:43;;;;;;;9.88;6.82;;;6.50;78.00;;;;;;4971277;28;20069;-75
2021/03/31 00:43:11;;;;;;;12.57;5.75;;;6.40;77.80;;;;;;4970191;28;20057;-75
2021/03/31 00:45:40;;;;;;;9.60;5.18;;;6.10;78.00;;;;;;4970659;28;20050;-75
2021/03/31 00:48:15;;;;;;;12.48;7.80;;;5.70;79.50;;;;;;4972080;28;20065;-75
2021/03/31 00:50:57;;;;;;;11.82;6.90;;;5.70;82.00;;;;;;4963366;28;20112;-75
2021/03/31 00:53:53;;;;;;;9.25;6.45;;;5.60;82.60;;;;;;4977760;28;20043;-75
2021/03/31 00:56:21;;;;;;;7.03;6.30;;;5.70;83.30;;;;;;4971182;28;20046;-75
2021/03/31 00:58:48;;;;;;;7.13;5.20;;;5.80;83.10;;;;;;4971465;28;20043;-75
2021/03/31 01:01:16;;;;;;;13.20;6.72;;;5.90;82.50;;;;;;4971922;28;20488;-75
2021/03/31 01:03:43;;;;;;;11.02;5.15;;;6.00;80.30;;;;;;4972489;28;20074;-75
2021/03/31 01:06:11;;;;;;;8.30;6.20;;;6.00;79.90;;;;;;4971663;28;20169;-75
2021/03/31 01:08:38;;;;;;;24.40;6.82;;;5.90;80.50;;;;;;4971832;28;20046;-75
2021/03/31 01:11:06;;;;;;;11.32;6.85;;;5.80;81.30;;;;;;4971986;28;20050;-75
2021/03/31 01:13:52;;;;;;;7.18;5.65;;;5.90;81.40;;;;;;4972277;28;20046;-74
2021/03/31 01:16:29;;;;;;;8.77;6.07;;;6.00;81.80;;;;;;4971753;28;20043;-75
2021/03/31 01:19:28;;;;;;;12.80;8.73;;;6.10;81.20;;;;;;4967609;28;20056;-75
2021/03/31 01:22:07;;;;;;;9.63;6.57;;;6.30;80.10;;;;;;4960214;28;20046;-75
2021/03/31 01:24:51;;;;;;;7.20;5.70;;;6.30;79.40;;;;;;4974135;28;20043;-75
2021/03/31 01:27:30;;;;;;;6.72;6.03;;;6.30;79.40;;;;;;4975932;28;20054;-75
2021/03/31 01:30:27;;;;;;;7.00;4.78;;;6.20;79.70;;;;;;4972586;28;20049;-75
2021/03/31 01:33:31;;;;;;;7.50;5.43;;;6.20;79.90;;;;;;4973996;28;20050;-75
2021/03/31 01:35:59;;;;;;;10.13;5.22;;;6.30;79.50;;;;;;4971291;28;20062;-75
2021/03/31 01:38:27;;;;;;;6.03;4.20;;;6.30;79.20;;;;;;4975793;28;20061;-75
2021/03/31 01:40:58;;;;;;;6.97;4.60;;;6.40;78.80;;;;;;4974315;28;20051;-75
2021/03/31 01:43:28;;;;;;;10.57;4.20;;;6.50;78.90;;;;;;4975521;28;20417;-75
2021/03/31 01:45:56;;;;;;;9.02;4.07;;;6.70;77.60;;;;;;4975124;28;20061;-75
2021/03/31 01:48:29;;;;;;;10.20;3.42;;;6.60;77.70;;;;;;4973895;28;20047;-75
2021/03/31 01:51:06;;;;;;;11.70;5.28;;;6.60;77.70;;;;;;4974930;28;20054;-75
2021/03/31 01:53:35;;;;;;;15.32;5.53;;;6.30;78.60;;;;;;4973775;28;20042;-75
2021/03/31 01:56:04;;;;;;;4.20;3.47;;;6.10;78.40;;;;;;4971142;28;20051;-75
2021/03/31 01:58:32;;;;;;;9.75;5.70;;;5.60;79.90;;;;;;4974593;28;20055;-75
2021/03/31 02:01:00;;;;;;;8.18;4.75;;;5.20;84.80;;;;;;4974324;28;20057;-75
2021/03/31 02:03:30;;;;;;;12.10;4.88;;;4.90;85.70;;;;;;4975364;28;20050;-75
2021/03/31 02:05:58;;;;;;;7.97;4.55;;;4.90;86.40;;;;;;4974439;28;20058;-75
2021/03/31 02:08:27;;;;;;;6.28;4.70;;;5.00;85.70;;;;;;4974633;28;20046;-75
2021/03/31 02:10:56;;;;;;;5.25;4.25;;;5.20;83.90;;;;;;4974258;28;20074;-75
2021/03/31 02:13:24;;;;;;;5.07;4.18;;;5.30;83.30;;;;;;4975051;28;20047;-75
2021/03/31 02:15:57;;;;;;;10.18;3.95;;;5.40;82.90;;;;;;4957878;28;20061;-75
2021/03/31 02:18:28;;;;;;;12.30;5.30;;;5.40;82.90;;;;;;4974406;28;20035;-75
2021/03/31 02:20:55;;;;;;;5.67;4.40;;;5.40;82.80;;;;;;4966584;28;20042;-75
2021/03/31 02:23:25;;;;;;;6.43;4.80;;;5.30;82.90;;;;;;4976013;28;20115;-80
2021/03/31 02:25:52;;;;;;;7.22;4.03;;;5.20;83.40;;;;;;4956650;28;20055;-79
2021/03/31 02:28:20;;;;;;;8.02;4.75;;;5.00;84.20;;;;;;4981740;28;20530;-79
2021/03/31 02:30:48;;;;;;;5.88;5.05;;;5.00;84.00;;;;;;4975668;28;20043;-79
2021/03/31 02:33:17;;;;;;;4.15;3.47;;;4.90;84.20;;;;;;4974552;28;20055;-79
2021/03/31 02:35:45;;;;;;;7.28;3.90;;;4.80;84.40;;;;;;4975505;28;20610;-79
2021/03/31 02:38:17;;;;;;;6.05;5.45;;;4.90;85.10;;;;;;4974602;28;20059;-79
2021/03/31 02:40:47;;;;;;;10.70;5.05;;;5.00;84.70;;;;;;4975022;28;20054;-79
2021/03/31 02:43:17;;;;;;;6.65;3.60;;;5.10;84.30;;;;;;4976107;28;20043;-79
2021/03/31 02:45:48;;;;;;;34.40;7.30;;;5.10;83.80;;;;;;4975784;28;20050;-79
2021/03/31 02:48:17;;;;;;;11.40;3.92;;;5.10;83.50;;;;;;4975397;28;20054;-79
2021/03/31 02:50:47;;;;;;;7.45;4.53;;;5.00;84.10;;;;;;4974645;28;20086;-79
2021/03/31 02:53:16;;;;;;;12.05;4.15;;;5.00;84.60;;;;;;4958327;28;20504;-79
2021/03/31 02:55:43;;;;;;;6.95;5.35;;;5.00;84.80;;;;;;4975349;28;20051;-79
2021/03/31 02:58:12;;;;;;;10.82;4.20;;;5.10;84.60;;;;;;4975518;28;20049;-79
2021/03/31 03:00:40;;;;;;;7.82;5.07;;;4.90;84.20;;;;;;4975117;28;20049;-79
2021/03/31 03:03:10;;;;;;;6.55;4.65;;;4.80;85.30;;;;;;4975818;28;20497;-79
2021/03/31 03:05:38;;;;;;;8.18;4.35;;;4.80;85.10;;;;;;4975203;28;20046;-79
2021/03/31 03:08:07;;;;;;;5.28;4.25;;;4.80;85.80;;;;;;4975300;28;20050;-79
2021/03/31 03:10:35;;;;;;;5.88;4.13;;;4.90;85.90;;;;;;4973806;28;20073;-79
2021/03/31 03:13:03;;;;;;;8.80;5.28;;;5.00;84.90;;;;;;4974730;28;20527;-79
2021/03/31 03:15:32;;;;;;;4.30;3.67;;;5.10;84.10;;;;;;4975436;28;20050;-79
2021/03/31 03:17:59;;;;;;;4.70;3.50;;;5.10;84.10;;;;;;4973893;28;20049;-79
2021/03/31 03:20:27;;;;;;;7.05;3.88;;;5.00;84.50;;;;;;4956321;28;20043;-79
2021/03/31 03:22:56;;;;;;;10.07;4.30;;;5.00;84.40;;;;;;4972213;28;20508;-80
2021/03/31 03:25:26;;;;;;;8.68;2.83;;;5.00;84.70;;;;;;4973407;28;20501;-79
2021/03/31 03:27:54;;;;;;;5.45;3.13;;;5.00;84.80;;;;;;4974019;28;20047;-79
2021/03/31 03:30:24;;;;;;;7.72;4.25;;;5.10;84.90;;;;;;4973795;28;20381;-79
2021/03/31 03:32:52;;;;;;;9.65;4.13;;;5.30;84.40;;;;;;4965045;28;20043;-79
2021/03/31 03:35:26;;;;;;;6.85;4.30;;;5.50;83.50;;;;;;4973076;28;20604;-79
2021/03/31 03:37:54;;;;;;;6.78;3.85;;;5.70;82.80;;;;;;4974659;28;20047;-79
2021/03/31 03:40:25;;;;;;;11.95;4.15;;;5.80;82.50;;;;;;4974050;28;20047;-79
2021/03/31 03:42:53;;;;;;;6.50;4.13;;;5.60;82.90;;;;;;4974742;28;20432;-79
2021/03/31 03:45:24;;;;;;;9.27;5.30;;;5.40;84.10;;;;;;4972745;28;20385;-79
2021/03/31 03:47:53;;;;;;;7.72;4.13;;;5.40;83.90;;;;;;4974570;28;20054;-81
2021/03/31 03:50:21;;;;;;;3.85;3.47;;;5.50;83.20;;;;;;4974174;28;20043;-79
2021/03/31 03:52:50;;;;;;;4.95;4.45;;;5.60;83.10;;;;;;4973965;28;20046;-79
2021/03/31 03:55:20;;;;;;;9.02;3.72;;;5.50;83.00;;;;;;4974473;28;20043;-79
2021/03/31 03:57:47;;;;;;;6.95;4.75;;;5.50;82.90;;;;;;4958667;28;20035;-81
2021/03/31 04:00:18;;;;;;;12.23;5.40;;;5.50;82.90;;;;;;4971116;28;20062;-78
2021/03/31 04:02:51;;;;;;;4.87;3.83;;;5.50;82.80;;;;;;4974442;28;20047;-78
2021/03/31 04:05:18;;;;;;;8.07;4.43;;;5.50;82.70;;;;;;4973668;28;20403;-79
2021/03/31 04:07:46;;;;;;;5.80;4.30;;;5.50;82.40;;;;;;4974439;28;20054;-79
2021/03/31 04:10:15;;;;;;;10.98;4.95;;;5.50;82.20;;;;;;4973809;28;20411;-80
2021/03/31 04:12:43;;;;;;;7.72;6.47;;;5.50;82.00;;;;;;4973595;28;20043;-79
2021/03/31 04:15:12;;;;;;;7.38;4.38;;;5.50;81.60;;;;;;4974065;28;20055;-79
2021/03/31 04:17:42;;;;;;;5.25;3.80;;;5.60;81.40;;;;;;4973851;28;20043;-79
2021/03/31 04:20:16;;;;;;;9.13;4.88;;;5.70;81.10;;;;;;4954780;28;20529;-78
2021/03/31 04:22:47;;;;;;;5.20;4.03;;;5.70;81.20;;;;;;4973415;28;20059;-79
2021/03/31 04:25:16;;;;;;;7.72;4.10;;;5.70;80.60;;;;;;4972369;28;20050;-78
2021/03/31 04:27:47;;;;;;;10.95;4.80;;;5.70;80.20;;;;;;4974045;28;20062;-79
2021/03/31 04:30:17;;;;;;;13.57;6.88;;;5.70;80.10;;;;;;4973600;28;20038;-79
2021/03/31 04:32:49;;;;;;;5.82;4.47;;;5.60;80.50;;;;;;4973476;28;20065;-79
2021/03/31 04:35:21;;;;;;;4.75;3.92;;;5.50;81.10;;;;;;4973971;28;20054;-79
2021/03/31 04:37:49;;;;;;;3.83;3.42;;;5.30;81.30;;;;;;4972443;28;20046;-79
2021/03/31 04:40:20;;;;;;;3.58;3.28;;;5.20;81.40;;;;;;4973475;28;20046;-79
2021/03/31 04:42:47;;;;;;;7.85;4.03;;;5.20;81.80;;;;;;4966262;28;20051;-79
2021/03/31 04:45:16;;;;;;;6.50;3.50;;;5.20;82.10;;;;;;4969275;28;20055;-79
2021/03/31 04:47:45;;;;;;;5.30;3.42;;;5.20;81.50;;;;;;4954771;28;20051;-79
2021/03/31 04:50:18;;;;;;;5.07;3.17;;;5.20;81.60;;;;;;4954309;28;20051;-79
2021/03/31 04:52:46;;;;;;;7.68;4.03;;;5.10;82.00;;;;;;4954216;28;20043;-78
2021/03/31 04:55:14;;;;;;;5.63;4.25;;;4.90;82.40;;;;;;4969116;28;20485;-79
2021/03/31 04:57:41;;;;;;;7.50;3.90;;;4.70;80.90;;;;;;4962304;28;20051;-79
2021/03/31 05:00:10;;;;;;;4.72;3.53;;;4.20;84.00;;;;;;4977440;28;20488;-79
2021/03/31 05:02:38;;;;;;;7.35;4.97;;;4.10;86.10;;;;;;4977629;28;20051;-79
2021/03/31 05:05:06;;;;;;;4.50;3.03;;;4.10;86.70;;;;;;4977210;28;20053;-79
2021/03/31 05:07:33;;;;;;;5.68;3.03;;;4.20;86.30;;;;;;4977747;28;20389;-79
2021/03/31 05:10:01;;;;;;;12.20;4.47;;;4.20;86.10;;;;;;4976864;28;20043;-79
2021/03/31 05:12:29;;;;;;;4.43;3.97;;;4.40;85.60;;;;;;4976991;28;20043;-79
2021/03/31 05:14:56;;;;;;;8.45;4.28;;;4.40;85.20;;;;;;4977532;28;20814;-79
2021/03/31 05:17:24;;;;;;;11.75;5.05;;;4.40;85.40;;;;;;4977086;28;20050;-79
2021/03/31 05:19:51;;;;;;;3.20;2.85;;;4.40;85.40;;;;;;4977371;28;20050;-79
2021/03/31 05:22:19;;;;;;;4.70;3.22;;;4.50;85.20;;;;;;4975287;28;20051;-79
2021/03/31 05:24:46;;;;;;;4.05;3.70;;;4.50;85.20;;;;;;4975577;28;20039;-79
2021/03/31 05:27:14;;;;;;;3.88;3.55;;;4.60;84.60;;;;;;4977365;28;20051;-79
2021/03/31 05:29:42;;;;;;;5.43;3.65;;;4.70;84.80;;;;;;4977032;28;20042;-79
2021/03/31 05:32:10;;;;;;;7.68;4.25;;;4.60;85.00;;;;;;4959643;28;20055;-79
2021/03/31 05:34:37;;;;;;;3.65;3.38;;;4.50;85.40;;;;;;4977483;28;20051;-79
2021/03/31 05:37:05;;;;;;;3.15;2.55;;;4.40;86.50;;;;;;4976560;28;20051;-80
2021/03/31 05:39:33;;;;;;;5.15;3.83;;;4.60;86.20;;;;;;4958588;28;20055;-79
2021/03/31 05:42:01;;;;;;;5.18;3.72;;;4.70;85.10;;;;;;4975351;28;20046;-79
2021/03/31 05:44:30;;;;;;;3.70;3.08;;;4.90;84.00;;;;;;4976633;28;20061;-79
2021/03/31 05:46:58;;;;;;;5.75;2.92;;;5.20;82.80;;;;;;4975716;28;20054;-79
2021/03/31 05:49:26;;;;;;;4.07;2.97;;;5.40;81.50;;;;;;4976083;28;20496;-79
2021/03/31 05:51:54;;;;;;;3.72;3.42;;;5.60;79.50;;;;;;4976331;28;20073;-79
2021/03/31 05:54:21;;;;;;;5.60;3.45;;;5.80;79.10;;;;;;4975522;28;20046;-79
2021/03/31 05:56:51;;;;;;;5.50;4.18;;;5.90;79.00;;;;;;4968335;28;20058;-79
2021/03/31 05:59:19;;;;;;;5.70;2.80;;;5.90;79.30;;;;;;4957288;28;20059;-79
2021/03/31 06:01:47;;;;;;;9.63;4.10;;;5.90;79.50;;;;;;4956097;28;20043;-76
2021/03/31 06:04:16;;;;;;;3.08;2.40;;;5.90;79.40;;;;;;4955766;28;20047;-76
2021/03/31 06:06:45;;;;;;;6.90;3.20;;;6.10;78.10;;;;;;4956710;28;20506;-76
2021/03/31 06:09:13;;;;;;;12.63;3.80;;;6.30;76.40;;;;;;4954483;28;20051;-76
2021/03/31 06:11:57;;;;;;;6.57;3.65;;;6.70;75.60;;;;;;4955627;28;20051;-76
2021/03/31 06:14:31;;;;;;;11.65;3.35;;;7.00;75.00;;;;;;4965605;28;20512;-76
2021/03/31 06:17:11;;;;;;;4.95;4.28;;;7.50;72.20;;;;;;4974820;28;20047;-76
2021/03/31 06:19:40;;;;;;;5.95;3.22;;;7.90;71.20;;;;;;4975171;28;20052;-76
2021/03/31 06:25:08;;;;;;;8.10;3.38;;;8.60;72.10;;;;;;4971034;28;20389;-76
2021/03/31 06:27:36;;;;;;;6.75;3.75;;;9.00;68.30;;;;;;4958063;28;20051;-76
2021/03/31 06:30:06;;;;;;;3.90;3.58;;;9.50;65.20;;;;;;4975342;28;20042;-77
2021/03/31 06:32:38;;;;;;;5.05;3.45;;;10.20;64.50;;;;;;4957656;28;20050;-78
2021/03/31 06:35:16;;;;;;;4.32;2.53;;;10.70;62.70;;;;;;4973609;28;20407;-77
2021/03/31 06:37:45;;;;;;;5.63;3.42;;;11.20;58.90;;;;;;4974885;28;20058;-77
2021/03/31 06:40:45;;;;;;;5.20;4.03;;;12.00;59.40;;;;;;4974694;28;20065;-77
2021/03/31 06:45:53;;;;;;;5.20;2.85;;;13.50;53.90;;;;;;4954150;28;20051;-79
2021/03/31 06:48:22;;;;;;;3.78;2.47;;;14.50;50.30;;;;;;4955267;28;20058;-79
2021/03/31 06:50:50;;;;;;;5.22;2.63;;;15.20;49.30;;;;;;4955063;28;20066;-77
2021/03/31 06:53:31;;;;;;;5.03;4.15;;;15.70;47.10;;;;;;4953661;28;20047;-76
2021/03/31 06:56:05;;;;;;;;;;;16.00;45.70;;;;;;4953090;28;20058;-77
2021/03/31 06:58:33;;;;;;;5.85;2.72;;;15.60;45.00;;;;;;4970808;28;19929;-77
2021/03/31 07:01:19;;;;;;;4.30;2.90;;;15.60;44.50;;;;;;4955303;28;20054;-78
2021/03/31 07:03:47;;;;;;;8.05;2.75;;;15.60;43.80;;;;;;4956970;28;20062;-78
2021/03/31 07:06:19;;;;;;;11.70;5.43;;;15.70;46.90;;;;;;4974104;28;20495;-78
2021/03/31 07:08:47;;;;;;;4.00;2.90;;;16.20;45.70;;;;;;4974306;28;20286;-77
2021/03/31 07:11:36;;;;;;;7.45;3.35;;;16.90;42.20;;;;;;4973686;28;20067;-78
2021/03/31 07:14:07;;;;;;;8.43;2.67;;;16.70;41.60;;;;;;4972859;28;20400;-79
2021/03/31 07:16:36;;;;;;;11.70;3.45;;;16.80;43.80;;;;;;4954810;28;20050;-79
2021/03/31 07:19:04;;;;;;;3.97;3.28;;;17.00;43.30;;;;;;4972105;28;20050;-78
2021/03/31 07:21:43;;;;;;;6.10;2.92;;;17.20;42.70;;;;;;4986137;28;20057;-77
2021/03/31 07:24:15;;;;;;;5.50;4.72;;;17.30;41.50;;;;;;4974191;28;20066;-79
2021/03/31 07:26:45;;;;;;;5.07;3.60;;;18.10;41.80;;;;;;4976317;28;20715;-80
2021/03/31 07:29:17;;;;;;;7.47;3.55;;;18.90;39.50;;;;;;4981483;28;20093;-78
2021/03/31 07:31:46;;;;;;;12.20;3.60;;;18.40;40.50;;;;;;4993750;28;20161;-78
2021/03/31 07:34:17;;;;;;;6.50;3.78;;;17.40;43.50;;;;;;4978074;28;20051;-81
2021/03/31 07:36:48;;;;;;;7.68;3.25;;;17.80;43.50;;;;;;4973475;28;20054;-79
2021/03/31 07:39:21;;;;;;;4.00;2.75;;;18.40;41.00;;;;;;4972977;28;20058;-79
2021/03/31 07:41:49;;;;;;;5.60;2.97;;;18.40;40.50;;;;;;4972221;28;20493;-80
2021/03/31 07:44:23;;;;;;;3.88;2.88;;;19.00;38.60;;;;;;4973924;28;20046;-80
2021/03/31 07:46:53;;;;;;;5.05;2.75;;;19.60;38.90;;;;;;4972989;28;20051;-79
2021/03/31 07:49:22;;;;;;;3.28;2.97;;;19.90;38.00;;;;;;4972767;28;20039;-79
2021/03/31 07:52:02;;;;;;;3.73;3.20;;;20.80;36.20;;;;;;4972294;28;20118;-79
2021/03/31 07:54:32;;;;;;;5.15;3.78;;;21.10;36.40;;;;;;4971405;28;20046;-79
2021/03/31 07:57:26;;;;;;;6.32;3.40;;;20.60;35.90;;;;;;4968695;28;20050;-79
2021/03/31 07:59:54;;;;;;;8.55;3.85;;;21.00;36.00;;;;;;4953502;29;20047;-79
2021/03/31 08:02:22;;;;;;;10.45;4.20;;;21.10;36.00;;;;;;4953781;28;20047;-79
2021/03/31 08:04:50;;;;;;;7.53;3.13;;;21.40;35.40;;;;;;4954091;28;20489;-80
2021/03/31 08:07:22;;;;;;;7.80;2.97;;;21.50;33.40;;;;;;4955193;28;20477;-80
2021/03/31 08:09:50;;;;;;;3.72;3.35;;;21.70;34.00;;;;;;4953986;28;20047;-80
2021/03/31 08:12:31;;;;;;;13.23;3.58;;;20.90;35.70;;;;;;4954099;28;20042;-80
2021/03/31 08:14:58;;;;;;;7.22;4.22;;;20.90;34.80;;;;;;4969422;28;20051;-79
2021/03/31 08:17:32;;;;;;;5.65;3.72;;;20.50;36.30;;;;;;4954127;28;20047;-80
2021/03/31 08:20:00;;;;;;;10.63;3.78;;;21.60;33.10;;;;;;4972322;28;20057;-80
2021/03/31 08:22:37;;;;;;;4.20;3.47;;;20.70;34.70;;;;;;4956301;28;20051;-79
2021/03/31 08:25:17;;;;;;;4.82;3.83;;;21.70;33.00;;;;;;4955989;28;20416;-80
2021/03/31 08:27:58;;;;;;;7.93;3.25;;;22.50;32.20;;;;;;4973715;28;20252;-80
2021/03/31 08:30:27;;;;;;;9.35;4.05;;;24.00;29.60;;;;;;4955644;28;20059;-80
2021/03/31 08:32:58;;;;;;;8.02;3.28;;;23.50;30.00;;;;;;4971502;28;20053;-80
2021/03/31 08:35:27;;;;;;;5.97;3.03;;;23.20;32.40;;;;;;4955992;28;20070;-80
2021/03/31 08:37:55;;;;;;;4.63;3.13;;;22.10;34.40;;;;;;4971882;28;20066;-80
2021/03/31 08:40:30;;;;;;;6.85;3.28;;;22.90;32.90;;;;;;4972362;28;20073;-83
2021/03/31 08:43:06;;;;;;;5.90;5.20;;;23.80;31.80;;;;;;4968625;28;20055;-83
2021/03/31 08:45:39;;;;;;;6.25;3.92;;;22.90;30.20;;;;;;4953299;28;20046;-83
2021/03/31 08:48:39;;;;;;;4.85;3.45;;;21.50;32.30;;;;;;4954533;28;20051;-84
2021/03/31 08:51:08;;;;;;;;;;;23.10;30.40;;;;;;4955072;28;20059;-83
2021/03/31 08:53:36;;;;;;;3.85;3.55;;;24.20;30.00;;;;;;4953347;28;19942;-82
2021/03/31 08:56:04;;;;;;;5.90;3.83;;;23.90;30.90;;;;;;4954371;28;20063;-82
2021/03/31 08:58:31;;;;;;;4.25;3.83;;;22.30;32.60;;;;;;4953811;29;20044;-82
2021/03/31 09:00:59;;;;;;;8.45;4.00;;;22.60;31.80;;;;;;4953847;28;20374;-82
2021/03/31 09:03:30;;;;;;;5.45;2.78;;;23.40;32.80;;;;;;4953798;29;20048;-82
2021/03/31 09:06:03;;;;;;;10.93;3.35;;;23.40;32.20;;;;;;4954253;28;20054;-82
2021/03/31 09:08:31;;;;;;;6.10;4.18;;;22.10;33.30;;;;;;4954537;28;20046;-83
2021/03/31 09:11:03;;;;;;;7.45;3.60;;;20.80;36.70;;;;;;4967077;28;20812;-83
2021/03/31 09:13:34;;;;;;;4.00;3.60;;;21.20;38.10;;;;;;4973489;28;20410;-83
2021/03/31 09:16:09;;;;;;;4.90;3.30;;;21.20;36.80;;;;;;4973575;28;20054;-82
2021/03/31 09:18:44;;;;;;;7.15;3.85;;;20.00;39.90;;;;;;4973973;28;20066;-83
2021/03/31 09:21:12;;;;;;;7.35;4.38;;;19.20;45.00;;;;;;4971956;28;20047;-83
2021/03/31 09:23:46;;;;;;;12.10;4.90;;;18.60;41.40;;;;;;4972742;28;20051;-83
2021/03/31 09:26:16;;;;;;;6.53;3.50;;;17.90;41.10;;;;;;4973580;28;20046;-83
2021/03/31 09:28:44;;;;;;;9.43;3.40;;;17.60;43.70;;;;;;4973522;28;20043;-83
2021/03/31 09:31:21;;;;;;;6.90;3.38;;;17.50;45.80;;;;;;4973493;28;20051;-82
2021/03/31 09:33:50;;;;;;;6.40;3.65;;;17.30;47.50;;;;;;4973526;28;20043;-84
2021/03/31 09:36:19;;;;;;;4.18;3.38;;;17.80;49.90;;;;;;4973369;28;20043;-83
2021/03/31 09:38:55;;;;;;;4.25;3.20;;;18.00;45.20;;;;;;4973739;28;20051;-83
2021/03/31 09:41:25;;;;;;;6.75;3.03;;;17.80;43.70;;;;;;4973482;28;20408;-83
2021/03/31 09:43:58;;;;;;;5.50;3.38;;;17.60;44.50;;;;;;4973315;28;20047;-83
2021/03/31 09:46:30;;;;;;;7.93;3.42;;;17.50;45.60;;;;;;4976765;28;20051;-83
2021/03/31 09:48:58;;;;;;;6.78;3.85;;;17.60;46.70;;;;;;4976785;28;20046;-83
2021/03/31 09:51:32;;;;;;;6.13;3.28;;;17.80;46.10;;;;;;4977368;28;20385;-83
2021/03/31 09:54:03;;;;;;;11.85;3.83;;;18.00;45.00;;;;;;4976943;28;20057;-84
2021/03/31 09:56:32;;;;;;;4.93;3.65;;;18.40;43.10;;;;;;4976768;28;20073;-84
2021/03/31 09:59:01;;;;;;;9.35;3.28;;;18.20;46.40;;;;;;4976015;28;20057;-83
2021/03/31 10:01:29;;;;;;;4.68;3.40;;;18.10;44.10;;;;;;4974930;28;20047;-84
2021/03/31 10:03:57;;;;;;;4.28;3.38;;;17.80;46.80;;;;;;4976990;28;20051;-83
2021/03/31 10:06:25;;;;;;;9.35;3.90;;;18.10;46.80;;;;;;4975121;28;20045;-84
2021/03/31 10:08:56;;;;;;;;;;;18.30;44.60;;;;;;4976236;28;20051;-81
2021/03/31 10:11:39;;;;;;;4.82;2.92;;;18.40;43.80;;;;;;4975361;28;19922;-82
2021/03/31 10:14:21;;;;;;;7.63;2.85;;;18.40;46.00;;;;;;4973440;28;20500;-84
2021/03/31 10:16:50;;;;;;;5.78;3.40;;;18.20;45.70;;;;;;4957885;28;20046;-84
2021/03/31 10:19:18;;;;;;;4.35;2.65;;;18.00;46.10;;;;;;4959042;28;20059;-84
2021/03/31 10:21:46;;;;;;;5.55;3.17;;;18.10;45.40;;;;;;4975305;28;20503;-84
2021/03/31 10:24:32;;;;;;;6.22;3.25;;;18.40;48.70;;;;;;4975177;28;20046;-83
2021/03/31 10:27:09;;;;;;;8.65;4.00;;;18.50;45.10;;;;;;4976725;28;20055;-84
2021/03/31 10:29:53;;;;;;;3.40;2.47;;;18.40;47.00;;;;;;4976206;28;20046;-83
2021/03/31 10:32:40;;;;;;;8.90;4.23;;;18.50;42.90;;;;;;4975878;28;20043;-84
2021/03/31 10:35:09;;;;;;;7.95;3.88;;;18.50;46.60;;;;;;4976570;28;20070;-84
2021/03/31 10:37:46;;;;;;;6.05;2.53;;;18.50;45.10;;;;;;4975944;28;20047;-83
2021/03/31 10:49:50;;;;;;;4.78;2.08;;;19.00;43.20;;;;;;4975929;28;20400;-84
2021/03/31 10:54:25;;;;;;;3.88;3.17;;;19.10;42.20;;;;;;4975289;28;20046;-84
2021/03/31 10:57:08;;;;;;;10.23;5.32;;;19.00;43.70;;;;;;4975607;28;20381;-83
2021/03/31 10:59:36;;;;;;;6.80;3.20;;;19.10;46.50;;;;;;4976247;28;20785;-83
2021/03/31 11:02:04;;;;;;;9.35;3.28;;;19.30;46.90;;;;;;4975483;28;20065;-84
2021/03/31 11:04:34;;;;;;;10.87;4.90;;;19.30;44.20;;;;;;4975501;28;20050;-84
2021/03/31 11:07:06;;;;;;;7.30;3.63;;;19.30;42.00;;;;;;4976077;28;20042;-84
2021/03/31 11:09:34;;;;;;;8.93;4.45;;;19.20;45.00;;;;;;4975412;28;20066;-85
2021/03/31 11:12:03;;;;;;;8.63;2.97;;;19.40;44.80;;;;;;4981219;28;20050;-84
2021/03/31 11:14:30;;;;;;;4.28;3.53;;;19.60;45.60;;;;;;4975862;28;20073;-84
2021/03/31 11:17:04;;;;;;;4.65;3.40;;;19.80;45.80;;;;;;4975391;28;20495;-84
2021/03/31 11:20:02;;;;;;;6.80;4.15;;;19.80;43.00;;;;;;4964999;28;20051;-84
2021/03/31 11:28:09;;;;;;;4.95;3.40;;;19.80;42.60;;;;;;4955696;28;20416;-84
2021/03/31 11:30:38;;;;;;;;;;;19.80;41.30;;;;;;4956515;28;20059;-84
2021/03/31 11:33:06;;;;;;;3.70;2.85;;;19.90;42.90;;;;;;4955718;28;19922;-84
2021/03/31 11:35:33;;;;;;;6.10;4.07;;;20.00;41.10;;;;;;4956063;28;20063;-85
2021/03/31 11:38:01;;;;;;;6.60;3.85;;;20.10;41.60;;;;;;4955487;28;20040;-84
2021/03/31 11:40:30;;;;;;;8.68;3.20;;;20.30;47.50;;;;;;4955360;28;20043;-84
2021/03/31 11:42:57;;;;;;;10.52;3.50;;;20.50;43.60;;;;;;4954539;29;20063;-85
2021/03/31 11:45:26;;;;;;;5.03;3.42;;;20.40;42.20;;;;;;4955447;28;20507;-85
2021/03/31 11:47:54;;;;;;;5.05;3.80;;;20.10;42.50;;;;;;4954713;29;20059;-84
2021/03/31 11:50:28;;;;;;;6.75;3.42;;;20.10;42.00;;;;;;4957401;28;20493;-84
2021/03/31 11:52:55;;;;;;;8.90;3.67;;;20.40;44.30;;;;;;4973407;28;20776;-85
2021/03/31 11:55:24;;;;;;;7.97;3.47;;;20.50;42.00;;;;;;4973866;28;20401;-84
2021/03/31 11:57:55;;;;;;;5.70;2.88;;;20.50;41.30;;;;;;4974643;28;20054;-86
2021/03/31 12:00:22;;;;;;;7.60;3.47;;;20.70;43.50;;;;;;4974584;28;20489;-84
2021/03/31 12:02:52;;;;;;;4.85;4.47;;;20.90;39.40;;;;;;4974959;28;20416;-84
2021/03/31 12:05:20;;;;;;;8.88;4.90;;;20.80;41.30;;;;;;4974600;28;20046;-85
2021/03/31 12:07:47;;;;;;;7.53;3.42;;;20.90;44.50;;;;;;4973118;28;20065;-85
2021/03/31 12:10:15;;;;;;;5.72;4.25;;;21.00;42.40;;;;;;4974325;28;20077;-85
2021/03/31 12:12:44;;;;;;;8.48;3.65;;;21.00;44.20;;;;;;4972851;28;20415;-85
2021/03/31 12:15:13;;;;;;;6.97;3.95;;;21.00;39.60;;;;;;4974829;28;20062;-85
2021/03/31 12:17:41;;;;;;;10.63;4.13;;;20.90;41.00;;;;;;4973019;28;20408;-85
2021/03/31 12:20:14;;;;;;;8.95;4.00;;;20.90;46.00;;;;;;4953767;28;20062;-84
2021/03/31 12:22:45;;;;;;;7.57;3.15;;;20.80;39.60;;;;;;4955408;28;20043;-84
2021/03/31 12:25:15;;;;;;;5.80;3.42;;;20.50;42.80;;;;;;4954748;28;20051;-84
2021/03/31 12:27:46;;;;;;;12.93;3.88;;;20.80;43.10;;;;;;4973496;28;20055;-84
2021/03/31 12:30:14;;;;;;;9.95;3.75;;;21.20;41.50;;;;;;4973055;28;20043;-84
2021/03/31 12:32:42;;;;;;;5.53;4.18;;;21.30;39.90;;;;;;4956676;28;20054;-84
2021/03/31 12:35:12;;;;;;;9.32;3.63;;;21.20;42.80;;;;;;4957382;28;20050;-85
2021/03/31 12:37:39;;;;;;;12.97;4.27;;;21.30;40.30;;;;;;4972671;28;20051;-82
2021/03/31 12:40:09;;;;;;;10.50;4.53;;;21.10;41.80;;;;;;4974031;28;20059;-85
2021/03/31 12:42:37;;;;;;;13.63;5.43;;;21.10;40.30;;;;;;4953531;29;20503;-85
2021/03/31 12:45:06;;;;;;;9.75;4.32;;;21.10;42.80;;;;;;4937588;29;20409;-85
2021/03/31 12:47:40;;;;;;;9.02;4.85;;;21.00;38.20;;;;;;4953900;29;20063;-84
2021/03/31 12:50:15;;;;;;;13.63;5.20;;;20.90;38.60;;;;;;4954703;28;20043;-84
2021/03/31 12:55:15;;;;;;;10.75;6.13;;;20.80;38.60;;;;;;4954866;28;20067;-85
2021/03/31 12:57:43;;;;;;;9.48;6.00;;;20.90;37.20;;;;;;4953367;28;20493;-85
2021/03/31 13:00:11;;;;;;;9.82;4.32;;;20.90;39.60;;;;;;4953238;28;20054;-86
2021/03/31 13:03:01;;;;;;;15.05;5.57;;;21.20;37.30;;;;;;4948306;28;20047;-85
2021/03/31 13:05:28;;;;;;;18.83;7.55;;;21.30;40.20;;;;;;4956155;28;20047;-84
2021/03/31 13:07:56;;;;;;;7.53;5.20;;;21.20;37.70;;;;;;4974132;28;20051;-84
2021/03/31 13:10:46;;;;;;;9.85;6.45;;;20.80;36.90;;;;;;4971227;28;20396;-85
2021/03/31 13:22:15;;;;;;;9.52;5.15;;;21.40;38.80;;;;;;4976905;28;20066;-86
2021/03/31 13:24:55;;;;;;;16.80;5.50;;;21.50;38.20;;;;;;4977355;28;20042;-85
2021/03/31 13:32:56;;;;;;;19.33;6.10;;;21.60;34.70;;;;;;4977755;28;20046;-86
2021/03/31 13:38:21;;;;;;;10.43;6.13;;;21.50;34.60;;;;;;4977169;28;20054;-85
2021/03/31 13:40:50;;;;;;;7.40;5.00;;;21.40;34.90;;;;;;4977038;28;20042;-85
2021/03/31 13:43:23;;;;;;;7.28;5.78;;;21.50;34.90;;;;;;4977528;28;20058;-85
2021/03/31 13:45:51;;;;;;;9.48;5.90;;;21.60;36.30;;;;;;4975836;28;20038;-85
2021/03/31 13:51:01;;;;;;;14.68;7.18;;;21.60;37.30;;;;;;4976891;28;20124;-85
2021/03/31 13:53:50;;;;;;;11.30;6.00;;;21.40;36.50;;;;;;4975757;28;20528;-85
2021/03/31 13:56:31;;;;;;;22.27;6.68;;;21.20;37.10;;;;;;4976345;28;20381;-85